Time;durP1;ratioP1;P1;durP2;ratioP2;P2;SDS_P1;SDS_P2;PMS_P1;PMS_P2;Temp;Humidity;BMP_temperature;BMP_pressure;BME280_temperature;BME280_humidity;BME280_pressure;Samples;Min_cycle;Max_cycle;Signal;HPM_P1;HPM_P2
2021/11/26 00:01:49;;;;;;;2.00;1.07;;;3.10;92.70;;;;;;5040753;28;20193;-82
2021/11/26 00:04:15;;;;;;;7.07;1.63;;;3.00;93.10;;;;;;5040534;28;20427;-83
2021/11/26 00:06:41;;;;;;;2.70;2.50;;;3.00;93.10;;;;;;5040475;28;20500;-82
2021/11/26 00:09:07;;;;;;;6.13;4.10;;;3.10;92.90;;;;;;5041152;28;20427;-82
2021/11/26 00:11:33;;;;;;;2.73;2.53;;;3.10;92.70;;;;;;5039405;28;20772;-81
2021/11/26 00:14:21;;;;;;;5.80;4.75;;;3.20;92.90;;;;;;5039646;28;20522;-81
2021/11/26 00:16:54;;;;;;;5.55;2.00;;;3.20;92.30;;;;;;5040079;28;20162;-81
2021/11/26 00:19:20;;;;;;;10.07;2.65;;;3.10;92.20;;;;;;5040482;28;20239;-81
2021/11/26 00:21:45;;;;;;;11.73;2.33;;;3.10;92.10;;;;;;5039335;28;20169;-81
2021/11/26 00:24:13;;;;;;;5.07;4.80;;;3.10;92.40;;;;;;5039195;28;20245;-81
2021/11/26 00:26:39;;;;;;;4.93;2.63;;;3.20;92.50;;;;;;5038950;28;20423;-81
2021/11/26 00:29:05;;;;;;;2.53;1.88;;;3.20;92.00;;;;;;5040488;28;20253;-82
2021/11/26 00:31:31;;;;;;;1.50;1.40;;;3.30;91.60;;;;;;5039976;28;20209;-81
2021/11/26 00:33:56;;;;;;;2.80;1.38;;;3.20;91.70;;;;;;5038629;28;20451;-82
2021/11/26 00:36:22;;;;;;;9.93;4.00;;;3.20;91.50;;;;;;5039936;28;20180;-81
2021/11/26 00:38:48;;;;;;;1.23;1.13;;;3.10;91.50;;;;;;5038963;28;20199;-81
2021/11/26 00:41:14;;;;;;;37.97;2.17;;;3.10;92.10;;;;;;5038073;28;20169;-81
2021/11/26 00:43:40;;;;;;;23.03;5.83;;;3.10;92.20;;;;;;5038050;28;20848;-81
2021/11/26 00:46:05;;;;;;;9.18;2.80;;;3.10;91.90;;;;;;5037254;28;20434;-81
2021/11/26 00:48:31;;;;;;;5.40;2.77;;;3.10;91.90;;;;;;5038156;28;20689;-81
2021/11/26 00:50:57;;;;;;;6.17;1.73;;;3.00;92.20;;;;;;5123955;22;20898;-81
2021/11/26 00:53:23;;;;;;;2.15;1.98;;;3.10;92.40;;;;;;5062709;28;20469;-81
2021/11/26 00:55:49;;;;;;;1.00;0.90;;;3.10;92.60;;;;;;5062597;28;20176;-81
2021/11/26 00:58:15;;;;;;;4.90;1.97;;;3.10;92.40;;;;;;5063173;28;20504;-81
2021/11/26 01:00:41;;;;;;;6.43;1.83;;;3.20;92.30;;;;;;5061890;28;20468;-81
2021/11/26 01:03:07;;;;;;;2.20;1.53;;;3.20;92.30;;;;;;5061908;28;20437;-82
2021/11/26 01:05:33;;;;;;;8.88;2.03;;;3.20;92.30;;;;;;5062751;28;20438;-81
2021/11/26 01:07:59;;;;;;;6.18;2.80;;;3.20;92.30;;;;;;5062497;28;20189;-81
2021/11/26 01:10:26;;;;;;;1.83;1.60;;;3.20;92.20;;;;;;5063030;28;20180;-82
2021/11/26 01:12:53;;;;;;;10.63;3.10;;;3.10;92.40;;;;;;5062444;28;20454;-80
2021/11/26 01:15:23;;;;;;;4.32;1.48;;;3.10;92.40;;;;;;5062622;28;20172;-81
2021/11/26 01:17:49;;;;;;;4.10;2.28;;;3.20;92.50;;;;;;5062390;28;20168;-81
2021/11/26 01:20:18;;;;;;;22.10;5.07;;;3.20;92.30;;;;;;5062439;28;20237;-81
2021/11/26 01:22:44;;;;;;;3.00;2.17;;;3.10;92.30;;;;;;5062139;28;20226;-81
2021/11/26 01:25:12;;;;;;;2.55;2.35;;;3.20;92.30;;;;;;5062779;28;20172;-81
2021/11/26 01:27:40;;;;;;;5.95;1.65;;;3.20;92.10;;;;;;5063470;28;20271;-82
2021/11/26 01:30:29;;;;;;;16.65;1.67;;;3.20;91.80;;;;;;5062816;28;20211;-81
2021/11/26 01:32:58;;;;;;;1.65;0.80;;;3.20;91.70;;;;;;5062310;28;20198;-82
2021/11/26 01:35:24;;;;;;;12.60;3.88;;;3.10;91.70;;;;;;5062088;28;20203;-81
2021/11/26 01:37:51;;;;;;;9.27;1.88;;;3.20;92.00;;;;;;5061826;28;20168;-81
2021/11/26 01:40:18;;;;;;;7.50;2.63;;;3.20;91.80;;;;;;5062401;28;20663;-80
2021/11/26 01:42:45;;;;;;;6.70;1.40;;;3.20;91.30;;;;;;5062690;28;20208;-81
2021/11/26 01:45:12;;;;;;;13.13;1.73;;;3.10;91.60;;;;;;5062095;28;20255;-81
2021/11/26 01:47:38;;;;;;;6.55;1.85;;;3.10;92.10;;;;;;5062825;28;20176;-81
2021/11/26 01:50:05;;;;;;;5.97;1.33;;;3.10;91.90;;;;;;5061610;28;20196;-82
2021/11/26 01:52:31;;;;;;;3.30;2.97;;;3.10;92.30;;;;;;5061507;28;20710;-81
2021/11/26 01:54:57;;;;;;;4.47;2.20;;;3.10;92.60;;;;;;5062070;28;20232;-81
2021/11/26 01:57:22;;;;;;;13.13;2.07;;;3.10;92.50;;;;;;5062172;28;20514;-81
2021/11/26 01:59:50;;;;;;;7.07;3.20;;;3.20;92.40;;;;;;5061952;28;20449;-81
2021/11/26 02:02:17;;;;;;;3.08;2.25;;;3.20;92.40;;;;;;5061999;28;20406;-81
2021/11/26 02:04:43;;;;;;;20.17;4.63;;;3.10;92.20;;;;;;5062081;28;20283;-80
2021/11/26 02:07:09;;;;;;;10.65;2.15;;;3.10;92.40;;;;;;5061433;28;20172;-80
2021/11/26 02:09:35;;;;;;;5.32;3.33;;;3.00;92.70;;;;;;5062528;28;20193;-80
2021/11/26 02:12:01;;;;;;;6.57;2.17;;;3.00;92.70;;;;;;5064289;28;20164;-80
2021/11/26 02:14:27;;;;;;;26.35;4.47;;;3.00;93.00;;;;;;5065750;28;20485;-81
2021/11/26 02:16:53;;;;;;;3.10;1.60;;;3.10;93.10;;;;;;5065647;28;20598;-81
2021/11/26 02:19:22;;;;;;;10.77;1.87;;;3.10;92.50;;;;;;5065227;28;20476;-80
2021/11/26 02:21:48;;;;;;;1.15;1.05;;;3.20;92.40;;;;;;5065024;28;20173;-81
2021/11/26 02:24:14;;;;;;;1.37;1.30;;;3.20;92.00;;;;;;5065335;28;20226;-81
2021/11/26 02:26:42;;;;;;;1.93;1.30;;;3.20;92.10;;;;;;5065029;28;20787;-81
2021/11/26 02:29:10;;;;;;;6.57;1.25;;;3.20;92.30;;;;;;5064997;28;20692;-80
2021/11/26 02:31:36;;;;;;;7.78;2.00;;;3.10;92.40;;;;;;5065608;28;20240;-80
2021/11/26 02:34:02;;;;;;;17.17;3.72;;;3.20;92.30;;;;;;5082731;28;20240;-81
2021/11/26 02:36:28;;;;;;;4.78;2.05;;;3.10;92.20;;;;;;5082518;28;20562;-82
2021/11/26 02:38:54;;;;;;;5.50;2.87;;;3.10;92.50;;;;;;5065070;28;20191;-81
2021/11/26 02:41:20;;;;;;;18.95;2.05;;;3.10;92.80;;;;;;5065411;28;20426;-81
2021/11/26 02:43:46;;;;;;;5.03;2.00;;;3.10;92.50;;;;;;5065853;28;20314;-81
2021/11/26 02:46:12;;;;;;;3.47;3.28;;;3.10;92.70;;;;;;5065244;28;20415;-81
2021/11/26 02:48:38;;;;;;;3.50;1.50;;;3.20;92.70;;;;;;5065071;28;20192;-81
2021/11/26 02:51:04;;;;;;;3.90;3.70;;;3.10;92.20;;;;;;5064677;28;20435;-81
2021/11/26 02:53:31;;;;;;;5.10;2.20;;;3.00;92.40;;;;;;5064944;28;20895;-81
2021/11/26 02:55:57;;;;;;;4.25;2.65;;;3.00;92.50;;;;;;5064642;28;20169;-81
2021/11/26 02:58:23;;;;;;;10.20;4.63;;;3.10;92.70;;;;;;5064130;28;20199;-81
2021/11/26 03:00:55;;;;;;;8.13;3.42;;;3.10;92.90;;;;;;5064830;28;20949;-81
2021/11/26 03:03:21;;;;;;;2.35;2.15;;;3.20;92.90;;;;;;5064959;28;20181;-81
2021/11/26 03:05:46;;;;;;;8.30;3.13;;;3.30;92.70;;;;;;5064314;28;20188;-80
2021/11/26 03:08:14;;;;;;;0.90;0.80;;;3.20;92.00;;;;;;5064660;28;20418;-80
2021/11/26 03:10:39;;;;;;;6.43;3.17;;;3.10;92.50;;;;;;5065003;28;20492;-81
2021/11/26 03:13:09;;;;;;;2.23;2.03;;;3.20;92.80;;;;;;5064073;28;20196;-80
2021/11/26 03:15:38;;;;;;;14.23;2.15;;;3.30;92.60;;;;;;5064183;28;20484;-81
2021/11/26 03:18:05;;;;;;;11.95;2.30;;;3.20;92.70;;;;;;5064640;28;20172;-81
2021/11/26 03:20:31;;;;;;;0.90;0.82;;;3.30;92.80;;;;;;5063878;28;20721;-81
2021/11/26 03:22:58;;;;;;;5.70;1.85;;;3.30;92.60;;;;;;5063276;28;20176;-81
2021/11/26 03:25:25;;;;;;;12.23;2.78;;;3.30;92.00;;;;;;5064172;28;20172;-82
2021/11/26 03:27:51;;;;;;;6.53;3.70;;;3.20;92.40;;;;;;5064169;28;20199;-81
2021/11/26 03:30:19;;;;;;;4.72;1.35;;;3.10;92.40;;;;;;5064025;28;20220;-81
2021/11/26 03:32:46;;;;;;;4.75;2.50;;;3.10;93.20;;;;;;5064183;28;20250;-81
2021/11/26 03:35:13;;;;;;;3.55;2.70;;;3.10;93.40;;;;;;5063961;28;20164;-82
2021/11/26 03:37:39;;;;;;;8.25;2.95;;;3.10;93.00;;;;;;5064272;28;20168;-80
2021/11/26 03:40:07;;;;;;;1.67;1.63;;;3.20;92.80;;;;;;5064079;28;20264;-81
2021/11/26 03:42:33;;;;;;;6.55;1.00;;;3.20;92.90;;;;;;5064250;28;20407;-81
2021/11/26 03:44:59;;;;;;;11.73;2.50;;;3.20;92.70;;;;;;5063660;28;20183;-81
2021/11/26 03:47:25;;;;;;;5.90;3.13;;;3.10;92.60;;;;;;5064054;28;20954;-81
2021/11/26 03:49:52;;;;;;;12.07;3.92;;;3.10;92.80;;;;;;5063642;28;20989;-81
2021/11/26 03:52:18;;;;;;;10.23;3.85;;;3.10;92.50;;;;;;5064195;28;20173;-82
2021/11/26 03:54:44;;;;;;;4.30;1.73;;;3.10;92.90;;;;;;5063506;28;20218;-81
2021/11/26 03:57:10;;;;;;;5.50;2.73;;;3.10;93.00;;;;;;5063724;28;20964;-80
2021/11/26 03:59:36;;;;;;;3.63;1.30;;;3.10;92.90;;;;;;5063359;28;20787;-82
2021/11/26 04:02:03;;;;;;;1.30;1.27;;;3.20;92.70;;;;;;5063376;28;20184;-81
2021/11/26 04:04:30;;;;;;;2.35;2.08;;;3.20;92.70;;;;;;5064215;28;20176;-81
2021/11/26 04:06:57;;;;;;;2.03;1.90;;;3.20;92.70;;;;;;5063687;28;20175;-81
2021/11/26 04:09:23;;;;;;;7.07;5.25;;;3.30;92.90;;;;;;5063515;28;20197;-81
2021/11/26 04:11:49;;;;;;;16.83;5.03;;;3.30;92.90;;;;;;5063604;28;20179;-81
2021/11/26 04:14:15;;;;;;;1.08;1.05;;;3.40;92.90;;;;;;5063141;28;20455;-81
2021/11/26 04:16:40;;;;;;;13.83;2.37;;;3.40;92.90;;;;;;5063428;28;20773;-80
2021/11/26 04:19:06;;;;;;;2.83;1.90;;;3.30;92.80;;;;;;5063611;28;20431;-81
2021/11/26 04:21:33;;;;;;;2.17;2.03;;;3.30;92.80;;;;;;5064063;28;20460;-81
2021/11/26 04:24:02;;;;;;;4.13;2.80;;;3.40;93.00;;;;;;5063226;28;20203;-81
2021/11/26 04:26:28;;;;;;;5.25;1.75;;;3.50;92.90;;;;;;5063334;28;20255;-81
2021/11/26 04:28:54;;;;;;;8.20;3.45;;;3.50;92.80;;;;;;5062778;28;20203;-81
2021/11/26 04:31:20;;;;;;;8.25;3.92;;;3.50;92.90;;;;;;5062866;28;20222;-81
2021/11/26 04:33:47;;;;;;;1.40;0.95;;;3.50;93.00;;;;;;5063126;28;20208;-81
2021/11/26 04:36:13;;;;;;;3.97;2.47;;;3.60;93.00;;;;;;5062886;28;20169;-81
2021/11/26 04:38:39;;;;;;;13.55;2.58;;;3.60;93.10;;;;;;5063700;28;20188;-81
2021/11/26 04:41:04;;;;;;;7.30;3.00;;;3.60;93.00;;;;;;5063032;28;20218;-81
2021/11/26 04:43:30;;;;;;;1.67;1.10;;;3.60;92.50;;;;;;5063230;28;20411;-81
2021/11/26 04:45:56;;;;;;;1.77;1.40;;;3.60;92.50;;;;;;5062967;28;20438;-81
2021/11/26 04:48:22;;;;;;;2.40;1.97;;;3.60;92.60;;;;;;5063260;28;20196;-81
2021/11/26 04:50:49;;;;;;;3.80;3.60;;;3.60;92.70;;;;;;5062454;28;20452;-81
2021/11/26 04:53:16;;;;;;;11.27;3.40;;;3.60;92.70;;;;;;5062486;28;20295;-81
2021/11/26 04:55:42;;;;;;;6.53;2.28;;;3.50;93.10;;;;;;5059257;28;20204;-79
2021/11/26 04:58:08;;;;;;;5.28;2.33;;;3.50;93.20;;;;;;5054960;28;20195;-78
2021/11/26 05:00:35;;;;;;;2.37;2.17;;;3.50;93.30;;;;;;5054577;28;20168;-78
2021/11/26 05:03:01;;;;;;;9.30;1.45;;;3.50;93.40;;;;;;5054593;28;20518;-79
2021/11/26 05:05:26;;;;;;;2.70;2.50;;;3.50;93.50;;;;;;5054716;28;20203;-78
2021/11/26 05:07:53;;;;;;;14.90;2.57;;;3.40;93.30;;;;;;5054586;28;20257;-79
2021/11/26 05:10:20;;;;;;;7.32;2.28;;;3.30;93.70;;;;;;5054402;28;20427;-78
2021/11/26 05:12:53;;;;;;;1.10;1.00;;;3.30;93.80;;;;;;5054198;28;20207;-79
2021/11/26 05:15:29;;;;;;;12.00;1.77;;;3.30;94.20;;;;;;5054235;28;20626;-79
2021/11/26 05:18:02;;;;;;;1.98;1.52;;;3.30;94.10;;;;;;5072331;28;20210;-78
2021/11/26 05:20:29;;;;;;;1.10;1.00;;;3.40;93.90;;;;;;5054754;28;20244;-79
2021/11/26 05:22:55;;;;;;;9.35;2.92;;;3.40;94.00;;;;;;5055167;28;20207;-79
2021/11/26 05:25:22;;;;;;;18.45;3.17;;;3.30;94.10;;;;;;5054724;28;20208;-79
2021/11/26 05:27:49;;;;;;;1.38;1.27;;;3.30;94.10;;;;;;5054892;28;20173;-82
2021/11/26 05:30:15;;;;;;;8.07;3.97;;;3.40;94.00;;;;;;5054879;28;20200;-80
2021/11/26 05:32:41;;;;;;;2.15;1.35;;;3.30;93.80;;;;;;5055096;28;20196;-79
2021/11/26 05:35:11;;;;;;;0.98;0.98;;;3.40;93.70;;;;;;5058601;28;20177;-81
2021/11/26 05:37:38;;;;;;;8.85;2.83;;;3.40;93.70;;;;;;5062247;28;20153;-81
2021/11/26 05:40:05;;;;;;;1.63;0.98;;;3.40;93.70;;;;;;5062857;28;20195;-80
2021/11/26 05:42:31;;;;;;;2.10;1.98;;;3.50;93.00;;;;;;5062290;28;20164;-83
2021/11/26 05:44:57;;;;;;;10.30;2.60;;;3.50;93.00;;;;;;5061570;28;20668;-81
2021/11/26 05:47:23;;;;;;;18.73;3.83;;;3.60;93.20;;;;;;5065225;28;20172;-82
2021/11/26 05:49:48;;;;;;;10.33;3.53;;;3.60;92.70;;;;;;5066556;28;20476;-80
2021/11/26 05:52:14;;;;;;;10.70;4.63;;;3.70;92.30;;;;;;5065391;28;20160;-80
2021/11/26 05:54:40;;;;;;;13.50;2.38;;;3.70;92.20;;;;;;5065929;28;20411;-80
2021/11/26 05:57:06;;;;;;;4.00;3.55;;;3.70;92.20;;;;;;5066804;28;20168;-81
2021/11/26 05:59:32;;;;;;;8.70;2.30;;;3.70;92.20;;;;;;5065614;28;20212;-80
2021/11/26 06:01:58;;;;;;;11.77;1.93;;;3.60;92.50;;;;;;5065490;28;20411;-80
2021/11/26 06:04:31;;;;;;;17.73;4.75;;;3.60;92.90;;;;;;5065748;28;20425;-80
2021/11/26 06:06:57;;;;;;;3.35;1.85;;;3.50;92.60;;;;;;5066649;28;20171;-81
2021/11/26 06:09:23;;;;;;;2.58;1.85;;;3.50;93.00;;;;;;5066396;28;20192;-80
2021/11/26 06:11:49;;;;;;;3.90;1.60;;;3.40;93.40;;;;;;5066160;28;20180;-80
2021/11/26 06:14:15;;;;;;;0.77;0.67;;;3.40;93.40;;;;;;5064240;28;20462;-79
2021/11/26 06:16:41;;;;;;;4.47;2.90;;;3.40;93.40;;;;;;5063273;28;20243;-80
2021/11/26 06:19:07;;;;;;;2.05;1.67;;;3.40;93.40;;;;;;5064626;28;20774;-79
2021/11/26 06:21:33;;;;;;;4.25;3.03;;;3.40;94.00;;;;;;5063014;28;20262;-80
2021/11/26 06:23:59;;;;;;;9.80;2.80;;;3.40;94.00;;;;;;5062173;28;20579;-80
2021/11/26 06:26:25;;;;;;;2.73;1.87;;;3.50;93.90;;;;;;5063451;28;20460;-81
2021/11/26 06:28:51;;;;;;;3.03;1.60;;;3.50;93.70;;;;;;5065306;28;20461;-81
2021/11/26 06:31:17;;;;;;;4.82;4.13;;;3.60;93.40;;;;;;5081209;28;20172;-80
2021/11/26 06:33:43;;;;;;;4.83;1.80;;;3.70;93.10;;;;;;5062723;28;20574;-80
2021/11/26 06:36:09;;;;;;;5.90;1.97;;;3.70;93.00;;;;;;5063753;28;20727;-80
2021/11/26 06:38:35;;;;;;;9.55;2.75;;;3.70;92.80;;;;;;5062835;28;20476;-82
2021/11/26 06:41:00;;;;;;;4.73;2.20;;;3.70;93.20;;;;;;5064355;28;20176;-80
2021/11/26 06:43:27;;;;;;;4.33;3.10;;;3.70;93.30;;;;;;5062768;28;20419;-82
2021/11/26 06:45:55;;;;;;;8.52;3.22;;;3.70;93.20;;;;;;5065062;28;20447;-82
2021/11/26 06:48:21;;;;;;;7.40;3.00;;;3.70;93.30;;;;;;5064625;28;20197;-82
2021/11/26 06:50:47;;;;;;;10.73;3.67;;;3.80;93.50;;;;;;5137010;22;20611;-82
2021/11/26 06:53:13;;;;;;;5.32;3.50;;;3.80;93.20;;;;;;5081109;28;20291;-82
2021/11/26 06:55:39;;;;;;;7.00;2.93;;;3.80;93.30;;;;;;5081064;28;20259;-82
2021/11/26 06:58:04;;;;;;;2.17;2.00;;;3.80;93.10;;;;;;5081978;28;20406;-82
2021/11/26 07:00:30;;;;;;;4.73;2.40;;;3.80;92.90;;;;;;5103157;28;20182;-82
2021/11/26 07:02:56;;;;;;;2.65;1.95;;;3.80;92.90;;;;;;5102277;28;20182;-82
2021/11/26 07:05:22;;;;;;;11.03;4.50;;;3.80;92.90;;;;;;5103325;28;20275;-82
2021/11/26 07:07:48;;;;;;;3.40;2.40;;;3.80;93.30;;;;;;5101784;28;20237;-82
2021/11/26 07:10:14;;;;;;;6.28;2.78;;;3.80;93.40;;;;;;5100894;28;20572;-82
2021/11/26 07:12:40;;;;;;;25.00;4.63;;;3.90;93.40;;;;;;5100572;28;20649;-82
2021/11/26 07:15:08;;;;;;;10.10;3.50;;;3.90;93.30;;;;;;5100464;28;20171;-82
2021/11/26 07:17:33;;;;;;;3.08;2.63;;;3.90;93.20;;;;;;5099957;28;20462;-82
2021/11/26 07:19:59;;;;;;;3.40;2.10;;;3.90;93.00;;;;;;5100949;28;20195;-82
2021/11/26 07:22:25;;;;;;;2.17;2.00;;;3.90;93.20;;;;;;5100400;28;20448;-82
2021/11/26 07:24:51;;;;;;;3.87;1.97;;;3.80;93.50;;;;;;5099716;28;20424;-82
2021/11/26 07:27:17;;;;;;;17.03;2.20;;;3.80;93.50;;;;;;5100977;28;20420;-82
2021/11/26 07:29:43;;;;;;;5.15;0.98;;;3.80;93.70;;;;;;5100232;28;20428;-82
2021/11/26 07:32:09;;;;;;;6.40;3.95;;;3.70;93.80;;;;;;5100338;28;20174;-82
2021/11/26 07:34:35;;;;;;;11.15;4.03;;;3.70;94.00;;;;;;5099258;28;20199;-82
2021/11/26 07:37:02;;;;;;;8.13;4.30;;;3.80;93.80;;;;;;5099758;28;20175;-82
2021/11/26 07:39:35;;;;;;;1.92;1.83;;;3.70;93.80;;;;;;5099520;28;20191;-82
2021/11/26 07:42:07;;;;;;;3.22;1.90;;;3.60;94.00;;;;;;5099769;28;20159;-82
2021/11/26 07:44:35;;;;;;;8.38;4.00;;;3.70;94.20;;;;;;5099095;28;20308;-82
2021/11/26 07:47:05;;;;;;;2.08;1.00;;;3.70;94.40;;;;;;5099100;28;20203;-82
2021/11/26 07:49:31;;;;;;;4.25;3.17;;;3.70;94.30;;;;;;5098866;28;20195;-82
2021/11/26 07:51:58;;;;;;;9.23;2.03;;;3.70;94.40;;;;;;5098356;28;20190;-82
2021/11/26 07:54:25;;;;;;;5.75;2.22;;;3.70;94.50;;;;;;5098351;28;20195;-82
2021/11/26 07:56:51;;;;;;;3.97;3.78;;;3.70;94.40;;;;;;5097899;28;20167;-82
2021/11/26 07:59:17;;;;;;;2.67;1.80;;;3.70;94.10;;;;;;5097701;28;20198;-82
2021/11/26 08:01:43;;;;;;;6.67;4.10;;;3.70;94.20;;;;;;5098002;28;20529;-82
2021/11/26 08:04:09;;;;;;;24.55;5.68;;;3.80;94.10;;;;;;5094004;28;20475;-82
2021/11/26 08:06:35;;;;;;;2.58;2.38;;;3.90;93.90;;;;;;5097832;28;20627;-82
2021/11/26 08:09:01;;;;;;;3.57;1.83;;;3.90;93.50;;;;;;5096963;28;20226;-82
2021/11/26 08:11:27;;;;;;;9.98;2.80;;;3.90;93.80;;;;;;5097700;28;20454;-82
2021/11/26 08:13:54;;;;;;;5.90;2.80;;;3.90;93.70;;;;;;5098551;28;20194;-82
2021/11/26 08:16:19;;;;;;;4.22;2.75;;;3.90;93.80;;;;;;5098447;28;20171;-82
2021/11/26 08:18:45;;;;;;;3.67;1.33;;;4.00;93.80;;;;;;5098641;28;20187;-82
2021/11/26 08:21:11;;;;;;;3.27;3.10;;;4.00;93.60;;;;;;5098534;28;20443;-82
2021/11/26 08:23:37;;;;;;;2.00;1.50;;;4.10;93.60;;;;;;5097856;28;20453;-82
2021/11/26 08:26:03;;;;;;;15.93;3.57;;;4.10;93.60;;;;;;5098179;28;20182;-82
2021/11/26 08:28:29;;;;;;;3.37;2.40;;;4.10;93.60;;;;;;5098138;28;20490;-82
2021/11/26 08:30:56;;;;;;;9.18;4.75;;;4.00;93.60;;;;;;5097966;28;20405;-82
2021/11/26 08:33:24;;;;;;;6.75;2.72;;;4.00;94.20;;;;;;5097618;28;20199;-82
2021/11/26 08:35:50;;;;;;;5.10;3.22;;;4.00;94.10;;;;;;5098212;28;20178;-82
2021/11/26 08:38:16;;;;;;;8.38;4.13;;;4.00;94.40;;;;;;5078114;28;20194;-82
2021/11/26 08:40:42;;;;;;;3.55;2.42;;;3.90;94.70;;;;;;5077413;28;20206;-82
2021/11/26 08:43:08;;;;;;;7.30;2.80;;;4.00;94.90;;;;;;5078039;28;20180;-82
2021/11/26 08:45:34;;;;;;;20.30;3.30;;;4.00;94.70;;;;;;5077285;28;20417;-82
2021/11/26 08:48:00;;;;;;;1.13;1.03;;;3.90;95.00;;;;;;5077039;28;20413;-82
2021/11/26 08:50:26;;;;;;;4.80;2.53;;;3.90;95.30;;;;;;5077273;28;20458;-82
2021/11/26 08:52:53;;;;;;;4.90;3.33;;;3.90;95.40;;;;;;5076885;28;20206;-82
2021/11/26 08:55:19;;;;;;;3.92;2.53;;;3.80;95.50;;;;;;5077293;28;20168;-82
2021/11/26 08:57:53;;;;;;;11.75;2.38;;;3.80;95.70;;;;;;5077176;28;20168;-82
2021/11/26 09:00:28;;;;;;;5.82;3.13;;;3.80;96.20;;;;;;5077511;28;20191;-82
2021/11/26 09:02:54;;;;;;;6.05;2.90;;;3.90;96.10;;;;;;5077817;28;20688;-82
2021/11/26 09:05:20;;;;;;;2.90;1.20;;;3.90;95.90;;;;;;5077896;28;20172;-82
2021/11/26 09:07:47;;;;;;;2.72;2.42;;;3.90;95.90;;;;;;5078027;28;20758;-82
2021/11/26 09:10:14;;;;;;;7.97;3.33;;;4.00;96.30;;;;;;5078476;28;20262;-82
2021/11/26 09:12:40;;;;;;;5.35;3.22;;;4.00;96.60;;;;;;5078237;28;20206;-82
2021/11/26 09:15:06;;;;;;;12.90;3.70;;;4.10;96.60;;;;;;5077915;28;20168;-83
2021/11/26 09:17:33;;;;;;;1.75;1.65;;;4.20;96.80;;;;;;5077688;28;20496;-83
2021/11/26 09:19:58;;;;;;;8.75;2.95;;;4.20;96.30;;;;;;5077545;28;20563;-83
2021/11/26 09:22:24;;;;;;;9.20;4.03;;;4.20;96.30;;;;;;5076713;28;20167;-82
2021/11/26 09:24:51;;;;;;;3.80;2.30;;;4.10;96.60;;;;;;5077583;28;20412;-83
2021/11/26 09:27:17;;;;;;;4.28;1.98;;;4.20;96.50;;;;;;5078467;28;20421;-82
2021/11/26 09:29:46;;;;;;;24.10;3.83;;;4.20;96.20;;;;;;5077467;28;20192;-83
2021/11/26 09:32:12;;;;;;;4.68;3.38;;;4.20;96.40;;;;;;5077764;28;20414;-82
2021/11/26 09:34:38;;;;;;;2.88;2.40;;;4.20;97.20;;;;;;5078356;28;20343;-82
2021/11/26 09:37:04;;;;;;;4.07;2.08;;;4.20;96.90;;;;;;5077518;28;20640;-82
2021/11/26 09:39:30;;;;;;;2.50;2.33;;;4.20;96.00;;;;;;5077274;28;20284;-82
2021/11/26 09:41:56;;;;;;;2.78;1.58;;;4.30;96.10;;;;;;5076898;28;20482;-82
2021/11/26 09:44:23;;;;;;;10.40;2.57;;;4.20;96.00;;;;;;5076571;28;20172;-82
2021/11/26 09:46:54;;;;;;;2.97;2.42;;;4.30;96.10;;;;;;5076649;28;20406;-82
2021/11/26 09:49:21;;;;;;;2.97;2.55;;;4.30;95.80;;;;;;5076641;28;20191;-82
2021/11/26 09:51:48;;;;;;;4.05;1.88;;;4.40;95.60;;;;;;5076421;28;20619;-82
2021/11/26 09:54:15;;;;;;;2.35;2.08;;;4.50;95.80;;;;;;5076385;28;20195;-82
2021/11/26 09:56:41;;;;;;;6.35;3.15;;;4.50;95.60;;;;;;5075978;28;20658;-82
2021/11/26 09:59:07;;;;;;;11.00;2.70;;;4.60;94.90;;;;;;5076314;28;20196;-82
2021/11/26 10:01:32;;;;;;;15.27;3.23;;;4.50;93.90;;;;;;5076195;28;20172;-82
2021/11/26 10:03:59;;;;;;;4.63;2.10;;;4.40;94.50;;;;;;5075855;28;20406;-82
2021/11/26 10:06:34;;;;;;;2.60;1.90;;;4.50;94.90;;;;;;5094755;28;20397;-82
2021/11/26 10:09:13;;;;;;;1.60;1.15;;;4.50;94.50;;;;;;5076523;28;20262;-82
2021/11/26 10:12:04;;;;;;;5.00;2.60;;;4.60;94.70;;;;;;5090545;28;20159;-82
2021/11/26 10:14:32;;;;;;;3.33;2.35;;;4.60;94.40;;;;;;5097046;28;20195;-82
2021/11/26 10:17:21;;;;;;;4.25;3.90;;;4.60;94.30;;;;;;5097067;28;20262;-82
2021/11/26 10:19:51;;;;;;;5.95;2.58;;;4.70;94.00;;;;;;5097189;28;20194;-82
2021/11/26 10:22:20;;;;;;;2.90;1.80;;;4.70;93.90;;;;;;5097442;28;20199;-82
2021/11/26 10:25:09;;;;;;;6.57;2.08;;;4.70;93.50;;;;;;5097332;28;20187;-83
2021/11/26 10:27:56;;;;;;;7.63;2.25;;;4.70;94.00;;;;;;5098310;28;20236;-83
2021/11/26 10:30:24;;;;;;;8.38;2.15;;;4.80;93.70;;;;;;5097570;28;20195;-82
2021/11/26 10:33:01;;;;;;;4.93;3.35;;;4.90;93.50;;;;;;5099097;28;20286;-82
2021/11/26 10:35:31;;;;;;;7.65;5.72;;;4.90;92.90;;;;;;5100928;28;20170;-82
2021/11/26 10:38:05;;;;;;;9.27;4.45;;;5.00;93.30;;;;;;5101065;28;20170;-82
2021/11/26 10:40:33;;;;;;;8.02;4.90;;;5.00;92.10;;;;;;5100661;28;20163;-83
2021/11/26 10:43:02;;;;;;;5.43;1.98;;;5.00;92.00;;;;;;5099792;28;20167;-82
2021/11/26 10:46:01;;;;;;;1.58;1.48;;;5.00;92.00;;;;;;5100541;28;20198;-82
2021/11/26 10:48:52;;;;;;;13.13;3.95;;;5.00;92.10;;;;;;5116890;28;20577;-82
2021/11/26 10:59:51;;;;;;;10.48;2.78;;;5.00;92.70;;;;;;5118682;28;20247;-83
2021/11/26 11:02:28;;;;;;;9.75;1.40;;;5.00;92.90;;;;;;5100539;28;20171;-83
2021/11/26 11:04:54;;;;;;;8.45;3.58;;;5.10;92.60;;;;;;5100189;28;20163;-83
2021/11/26 11:07:20;;;;;;;3.13;2.80;;;5.10;92.20;;;;;;5100117;28;20179;-83
2021/11/26 11:09:48;;;;;;;3.30;2.17;;;5.10;92.40;;;;;;5099410;28;20562;-83
2021/11/26 11:12:15;;;;;;;2.33;2.03;;;5.10;92.30;;;;;;5099301;28;20172;-83
2021/11/26 11:14:57;;;;;;;13.90;3.63;;;5.10;92.70;;;;;;5100064;28;20676;-83
2021/11/26 11:17:27;;;;;;;16.17;4.07;;;5.10;92.60;;;;;;5100426;28;20167;-83
2021/11/26 11:19:55;;;;;;;8.70;2.60;;;5.10;92.60;;;;;;5100943;28;20719;-83
2021/11/26 11:22:21;;;;;;;3.38;2.33;;;5.10;93.00;;;;;;5099728;28;20195;-83
2021/11/26 11:24:47;;;;;;;3.23;2.37;;;5.10;92.90;;;;;;5100012;28;20175;-83
2021/11/26 11:27:13;;;;;;;4.18;1.55;;;5.10;93.10;;;;;;5100033;28;20961;-82
2021/11/26 11:29:40;;;;;;;6.65;4.63;;;5.20;93.00;;;;;;5099699;28;20191;-83
2021/11/26 11:32:06;;;;;;;7.25;2.10;;;5.20;92.50;;;;;;5100369;28;20385;-83
2021/11/26 11:34:33;;;;;;;1.77;1.50;;;5.20;92.60;;;;;;5100086;28;20243;-83
2021/11/26 11:37:00;;;;;;;1.42;1.33;;;5.20;92.20;;;;;;5099985;28;20427;-83
2021/11/26 11:39:26;;;;;;;2.25;1.70;;;5.20;92.60;;;;;;5099963;28;20332;-83
2021/11/26 11:41:59;;;;;;;5.57;1.88;;;5.20;92.70;;;;;;5099587;28;20167;-83
2021/11/26 11:44:34;;;;;;;8.90;3.45;;;5.10;93.60;;;;;;5098906;28;20205;-83
2021/11/26 11:47:19;;;;;;;6.60;1.65;;;5.10;94.10;;;;;;5100119;28;20171;-83
2021/11/26 11:49:45;;;;;;;4.10;1.95;;;5.10;94.50;;;;;;5099222;28;20191;-83
2021/11/26 11:52:13;;;;;;;5.93;3.25;;;5.10;94.30;;;;;;5098997;28;20247;-83
2021/11/26 11:54:45;;;;;;;7.60;3.10;;;5.10;94.30;;;;;;5099196;28;20286;-83
2021/11/26 11:57:27;;;;;;;6.93;1.65;;;5.10;94.60;;;;;;5098941;28;20167;-83
2021/11/26 12:00:11;;;;;;;4.15;1.88;;;5.10;94.40;;;;;;5098574;28;20183;-83
2021/11/26 12:02:36;;;;;;;11.10;2.83;;;5.10;94.40;;;;;;5098855;28;20175;-83
2021/11/26 12:05:02;;;;;;;3.00;1.77;;;5.10;94.50;;;;;;5099033;28;20171;-83
2021/11/26 12:07:30;;;;;;;5.40;2.05;;;5.10;94.90;;;;;;5100102;28;20169;-85
2021/11/26 12:10:15;;;;;;;8.98;4.57;;;5.20;94.90;;;;;;5099721;28;20611;-85
2021/11/26 12:12:50;;;;;;;1.33;1.23;;;5.20;94.90;;;;;;5099826;28;20220;-85
2021/11/26 12:15:42;;;;;;;8.38;3.72;;;5.20;95.10;;;;;;5100251;28;20150;-86
2021/11/26 12:18:08;;;;;;;2.78;1.50;;;5.20;94.70;;;;;;5095783;28;20175;-86
2021/11/26 12:20:36;;;;;;;5.35;2.97;;;5.20;94.50;;;;;;5100666;28;20171;-85
2021/11/26 12:23:21;;;;;;;7.72;3.55;;;5.20;94.30;;;;;;5099815;28;20669;-84
2021/11/26 12:26:13;;;;;;;5.00;2.35;;;5.30;94.50;;;;;;5099660;28;20236;-83
2021/11/26 12:28:44;;;;;;;3.38;1.83;;;5.20;94.30;;;;;;5099492;28;20198;-83
2021/11/26 12:31:11;;;;;;;1.30;1.20;;;5.30;94.40;;;;;;5100357;28;20192;-83
2021/11/26 12:33:38;;;;;;;9.95;5.50;;;5.30;93.90;;;;;;5100605;28;20195;-83
2021/11/26 12:36:13;;;;;;;11.07;2.67;;;5.30;93.70;;;;;;5099368;28;20575;-83
2021/11/26 12:38:38;;;;;;;2.25;1.30;;;5.20;94.20;;;;;;5098324;28;20729;-83
2021/11/26 12:41:07;;;;;;;5.37;2.30;;;5.20;94.50;;;;;;5098151;28;20254;-83
2021/11/26 12:43:45;;;;;;;4.43;1.80;;;5.20;93.80;;;;;;5099708;28;20196;-83
2021/11/26 12:46:27;;;;;;;4.40;3.38;;;5.30;93.80;;;;;;5100070;28;20646;-83
2021/11/26 12:51:40;;;;;;;4.75;2.40;;;5.20;93.90;;;;;;5119083;28;20621;-83
2021/11/26 12:54:07;;;;;;;9.20;1.80;;;5.20;94.20;;;;;;5149911;22;20221;-80
2021/11/26 12:56:38;;;;;;;4.10;1.50;;;5.20;94.00;;;;;;5053342;28;20173;-80
2021/11/26 12:59:04;;;;;;;12.25;4.25;;;5.20;94.20;;;;;;5053338;28;20193;-81
2021/11/26 13:01:31;;;;;;;4.63;3.13;;;5.30;94.10;;;;;;5053131;28;20697;-80
2021/11/26 13:03:58;;;;;;;12.80;2.58;;;5.40;93.50;;;;;;5053650;28;20178;-80
2021/11/26 13:06:28;;;;;;;8.38;4.10;;;5.40;93.40;;;;;;5053628;28;20177;-81
2021/11/26 13:09:20;;;;;;;0.85;0.75;;;5.40;93.40;;;;;;5053295;28;20192;-81
2021/11/26 13:11:48;;;;;;;9.88;1.58;;;5.50;93.50;;;;;;5049785;28;20201;-81